sensor_id;sensor_type;location;lat;lon;timestamp;P1;durP1;ratioP1;P2;durP2;ratioP2
67717;SDS011;54511;47.532;19.180;2022-08-20T00:01:31;13.52;;;6.75;;
67717;SDS011;54511;47.532;19.180;2022-08-20T00:04:02;15.30;;;7.20;;
67717;SDS011;54511;47.532;19.180;2022-08-20T00:06:29;12.30;;;6.15;;
67717;SDS011;54511;47.532;19.180;2022-08-20T00:09:02;14.98;;;6.82;;
67717;SDS011;54511;47.532;19.180;2022-08-20T00:11:30;14.82;;;7.20;;
67717;SDS011;54511;47.532;19.180;2022-08-20T00:14:01;12.00;;;6.97;;
67717;SDS011;54511;47.532;19.180;2022-08-20T00:16:47;15.30;;;6.78;;
67717;SDS011;54511;47.532;19.180;2022-08-20T00:19:18;15.95;;;6.35;;
67717;SDS011;54511;47.532;19.180;2022-08-20T00:21:47;14.57;;;6.55;;
67717;SDS011;54511;47.532;19.180;2022-08-20T00:24:14;13.15;;;6.70;;
67717;SDS011;54511;47.532;19.180;2022-08-20T00:26:41;13.45;;;6.37;;
67717;SDS011;54511;47.532;19.180;2022-08-20T00:29:15;12.30;;;6.50;;
67717;SDS011;54511;47.532;19.180;2022-08-20T00:31:44;13.57;;;8.00;;
67717;SDS011;54511;47.532;19.180;2022-08-20T00:34:31;14.15;;;6.95;;
67717;SDS011;54511;47.532;19.180;2022-08-20T00:37:18;13.62;;;6.50;;
67717;SDS011;54511;47.532;19.180;2022-08-20T00:39:45;12.23;;;6.57;;
67717;SDS011;54511;47.532;19.180;2022-08-20T00:42:12;13.88;;;6.43;;
67717;SDS011;54511;47.532;19.180;2022-08-20T00:44:45;12.45;;;6.82;;
67717;SDS011;54511;47.532;19.180;2022-08-20T00:47:12;14.38;;;6.70;;
67717;SDS011;54511;47.532;19.180;2022-08-20T00:49:39;13.13;;;6.20;;
67717;SDS011;54511;47.532;19.180;2022-08-20T00:52:11;15.55;;;6.72;;
67717;SDS011;54511;47.532;19.180;2022-08-20T00:54:40;12.20;;;6.95;;
67717;SDS011;54511;47.532;19.180;2022-08-20T00:57:11;13.38;;;6.85;;
67717;SDS011;54511;47.532;19.180;2022-08-20T01:00:00;13.23;;;6.40;;
67717;SDS011;54511;47.532;19.180;2022-08-20T01:02:37;13.57;;;6.37;;
67717;SDS011;54511;47.532;19.180;2022-08-20T01:05:54;14.82;;;6.57;;
67717;SDS011;54511;47.532;19.180;2022-08-20T01:08:22;16.45;;;6.57;;
67717;SDS011;54511;47.532;19.180;2022-08-20T01:10:52;19.73;;;7.20;;
67717;SDS011;54511;47.532;19.180;2022-08-20T01:13:32;16.90;;;6.90;;
67717;SDS011;54511;47.532;19.180;2022-08-20T01:16:05;14.48;;;7.00;;
67717;SDS011;54511;47.532;19.180;2022-08-20T01:18:37;12.15;;;6.95;;
67717;SDS011;54511;47.532;19.180;2022-08-20T01:21:13;14.00;;;7.30;;
67717;SDS011;54511;47.532;19.180;2022-08-20T01:24:00;12.45;;;6.75;;
67717;SDS011;54511;47.532;19.180;2022-08-20T01:27:20;14.18;;;6.78;;
67717;SDS011;54511;47.532;19.180;2022-08-20T01:29:48;13.82;;;7.22;;
67717;SDS011;54511;47.532;19.180;2022-08-20T01:32:17;12.45;;;6.40;;
67717;SDS011;54511;47.532;19.180;2022-08-20T01:34:45;14.32;;;7.05;;
67717;SDS011;54511;47.532;19.180;2022-08-20T01:37:20;14.32;;;6.65;;
67717;SDS011;54511;47.532;19.180;2022-08-20T01:39:47;14.18;;;6.43;;
67717;SDS011;54511;47.532;19.180;2022-08-20T01:42:26;16.10;;;7.20;;
67717;SDS011;54511;47.532;19.180;2022-08-20T01:44:56;16.67;;;6.65;;
67717;SDS011;54511;47.532;19.180;2022-08-20T01:47:24;14.48;;;6.85;;
67717;SDS011;54511;47.532;19.180;2022-08-20T01:50:03;14.60;;;6.62;;
67717;SDS011;54511;47.532;19.180;2022-08-20T01:52:38;15.48;;;6.80;;
67717;SDS011;54511;47.532;19.180;2022-08-20T01:55:09;12.23;;;6.37;;
67717;SDS011;54511;47.532;19.180;2022-08-20T01:57:37;16.15;;;6.25;;
67717;SDS011;54511;47.532;19.180;2022-08-20T02:00:06;12.93;;;6.40;;
67717;SDS011;54511;47.532;19.180;2022-08-20T02:02:37;12.13;;;6.80;;
67717;SDS011;54511;47.532;19.180;2022-08-20T02:05:04;13.38;;;6.90;;
67717;SDS011;54511;47.532;19.180;2022-08-20T02:07:32;13.57;;;6.95;;
67717;SDS011;54511;47.532;19.180;2022-08-20T02:10:00;14.18;;;6.32;;
67717;SDS011;54511;47.532;19.180;2022-08-20T02:12:27;14.45;;;6.65;;
67717;SDS011;54511;47.532;19.180;2022-08-20T02:14:56;15.95;;;6.40;;
67717;SDS011;54511;47.532;19.180;2022-08-20T02:17:24;12.77;;;6.30;;
67717;SDS011;54511;47.532;19.180;2022-08-20T02:19:53;14.02;;;6.35;;
67717;SDS011;54511;47.532;19.180;2022-08-20T02:22:23;14.82;;;5.75;;
67717;SDS011;54511;47.532;19.180;2022-08-20T02:24:53;13.90;;;6.18;;
67717;SDS011;54511;47.532;19.180;2022-08-20T02:27:21;11.80;;;6.03;;
67717;SDS011;54511;47.532;19.180;2022-08-20T02:29:48;13.23;;;6.12;;
67717;SDS011;54511;47.532;19.180;2022-08-20T02:32:21;15.10;;;5.50;;
67717;SDS011;54511;47.532;19.180;2022-08-20T02:34:48;14.75;;;6.22;;
67717;SDS011;54511;47.532;19.180;2022-08-20T02:37:16;13.50;;;6.00;;
67717;SDS011;54511;47.532;19.180;2022-08-20T02:39:43;12.10;;;5.80;;
67717;SDS011;54511;47.532;19.180;2022-08-20T02:42:11;13.57;;;5.97;;
67717;SDS011;54511;47.532;19.180;2022-08-20T02:44:38;13.13;;;5.72;;
67717;SDS011;54511;47.532;19.180;2022-08-20T02:47:05;14.50;;;5.93;;
67717;SDS011;54511;47.532;19.180;2022-08-20T02:49:34;14.10;;;5.70;;
67717;SDS011;54511;47.532;19.180;2022-08-20T02:52:01;11.30;;;5.37;;
67717;SDS011;54511;47.532;19.180;2022-08-20T02:54:28;13.68;;;5.95;;
67717;SDS011;54511;47.532;19.180;2022-08-20T02:56:55;12.13;;;5.68;;
67717;SDS011;54511;47.532;19.180;2022-08-20T02:59:22;15.40;;;6.37;;
67717;SDS011;54511;47.532;19.180;2022-08-20T03:01:49;12.88;;;6.10;;
67717;SDS011;54511;47.532;19.180;2022-08-20T03:04:18;13.25;;;6.12;;
67717;SDS011;54511;47.532;19.180;2022-08-20T03:06:46;10.85;;;5.65;;
67717;SDS011;54511;47.532;19.180;2022-08-20T03:09:13;10.95;;;5.75;;
67717;SDS011;54511;47.532;19.180;2022-08-20T03:11:41;18.85;;;6.70;;
67717;SDS011;54511;47.532;19.180;2022-08-20T03:14:08;16.67;;;5.80;;
67717;SDS011;54511;47.532;19.180;2022-08-20T03:16:35;11.00;;;5.55;;
67717;SDS011;54511;47.532;19.180;2022-08-20T03:19:02;13.10;;;5.85;;
67717;SDS011;54511;47.532;19.180;2022-08-20T03:21:29;11.75;;;5.82;;
67717;SDS011;54511;47.532;19.180;2022-08-20T03:23:59;13.35;;;6.12;;
67717;SDS011;54511;47.532;19.180;2022-08-20T03:26:26;10.98;;;5.55;;
67717;SDS011;54511;47.532;19.180;2022-08-20T03:28:53;11.00;;;5.80;;
67717;SDS011;54511;47.532;19.180;2022-08-20T03:31:20;10.18;;;5.70;;
67717;SDS011;54511;47.532;19.180;2022-08-20T03:33:47;14.10;;;5.65;;
67717;SDS011;54511;47.532;19.180;2022-08-20T03:36:14;12.63;;;5.95;;
67717;SDS011;54511;47.532;19.180;2022-08-20T03:38:41;12.48;;;6.03;;
67717;SDS011;54511;47.532;19.180;2022-08-20T03:41:10;13.93;;;5.90;;
67717;SDS011;54511;47.532;19.180;2022-08-20T03:43:37;11.85;;;5.32;;
67717;SDS011;54511;47.532;19.180;2022-08-20T03:46:05;13.05;;;5.62;;
67717;SDS011;54511;47.532;19.180;2022-08-20T03:48:32;12.82;;;6.05;;
67717;SDS011;54511;47.532;19.180;2022-08-20T03:51:00;13.13;;;5.72;;
67717;SDS011;54511;47.532;19.180;2022-08-20T03:53:29;18.50;;;6.60;;
67717;SDS011;54511;47.532;19.180;2022-08-20T03:55:57;11.60;;;6.12;;
67717;SDS011;54511;47.532;19.180;2022-08-20T03:58:27;18.42;;;6.47;;
67717;SDS011;54511;47.532;19.180;2022-08-20T04:00:54;11.90;;;6.00;;
67717;SDS011;54511;47.532;19.180;2022-08-20T04:03:23;11.02;;;5.95;;
67717;SDS011;54511;47.532;19.180;2022-08-20T04:05:51;14.10;;;6.20;;
67717;SDS011;54511;47.532;19.180;2022-08-20T04:08:20;11.48;;;6.65;;
67717;SDS011;54511;47.532;19.180;2022-08-20T04:10:48;13.82;;;6.90;;
67717;SDS011;54511;47.532;19.180;2022-08-20T04:13:18;14.32;;;7.70;;
67717;SDS011;54511;47.532;19.180;2022-08-20T04:15:48;13.57;;;7.62;;
67717;SDS011;54511;47.532;19.180;2022-08-20T04:18:17;20.92;;;7.90;;
67717;SDS011;54511;47.532;19.180;2022-08-20T04:20:48;12.77;;;7.70;;
67717;SDS011;54511;47.532;19.180;2022-08-20T04:23:15;16.45;;;7.80;;
67717;SDS011;54511;47.532;19.180;2022-08-20T04:25:43;14.43;;;8.13;;
67717;SDS011;54511;47.532;19.180;2022-08-20T04:28:11;16.80;;;8.35;;
67717;SDS011;54511;47.532;19.180;2022-08-20T04:30:39;14.00;;;7.43;;
67717;SDS011;54511;47.532;19.180;2022-08-20T04:33:09;17.75;;;7.87;;
67717;SDS011;54511;47.532;19.180;2022-08-20T04:35:36;14.13;;;7.47;;
67717;SDS011;54511;47.532;19.180;2022-08-20T04:38:05;20.17;;;7.45;;
67717;SDS011;54511;47.532;19.180;2022-08-20T04:40:33;15.48;;;8.15;;
67717;SDS011;54511;47.532;19.180;2022-08-20T04:43:19;13.00;;;7.43;;
67717;SDS011;54511;47.532;19.180;2022-08-20T04:45:48;15.93;;;8.13;;
67717;SDS011;54511;47.532;19.180;2022-08-20T04:48:18;13.57;;;7.50;;
67717;SDS011;54511;47.532;19.180;2022-08-20T04:50:47;14.73;;;7.55;;
67717;SDS011;54511;47.532;19.180;2022-08-20T04:53:16;15.18;;;7.87;;
67717;SDS011;54511;47.532;19.180;2022-08-20T04:55:44;13.25;;;7.68;;
67717;SDS011;54511;47.532;19.180;2022-08-20T04:58:12;13.25;;;7.70;;
67717;SDS011;54511;47.532;19.180;2022-08-20T05:00:43;14.30;;;7.50;;
67717;SDS011;54511;47.532;19.180;2022-08-20T05:03:12;12.77;;;7.40;;
67717;SDS011;54511;47.532;19.180;2022-08-20T05:05:41;13.10;;;7.70;;
67717;SDS011;54511;47.532;19.180;2022-08-20T05:08:09;15.38;;;7.82;;
67717;SDS011;54511;47.532;19.180;2022-08-20T05:10:36;18.17;;;8.20;;
67717;SDS011;54511;47.532;19.180;2022-08-20T05:13:05;17.73;;;8.38;;
67717;SDS011;54511;47.532;19.180;2022-08-20T05:15:33;16.85;;;8.05;;
67717;SDS011;54511;47.532;19.180;2022-08-20T05:18:01;16.35;;;8.88;;
67717;SDS011;54511;47.532;19.180;2022-08-20T05:20:30;18.02;;;8.68;;
67717;SDS011;54511;47.532;19.180;2022-08-20T05:23:00;15.45;;;8.95;;
67717;SDS011;54511;47.532;19.180;2022-08-20T05:25:28;17.00;;;8.70;;
67717;SDS011;54511;47.532;19.180;2022-08-20T05:27:56;18.60;;;8.85;;
67717;SDS011;54511;47.532;19.180;2022-08-20T05:30:25;13.07;;;7.82;;
67717;SDS011;54511;47.532;19.180;2022-08-20T05:32:52;16.92;;;7.85;;
67717;SDS011;54511;47.532;19.180;2022-08-20T05:35:19;14.95;;;8.32;;
67717;SDS011;54511;47.532;19.180;2022-08-20T05:37:46;19.30;;;8.55;;
67717;SDS011;54511;47.532;19.180;2022-08-20T05:40:15;14.05;;;8.20;;
67717;SDS011;54511;47.532;19.180;2022-08-20T05:42:42;15.73;;;8.02;;
67717;SDS011;54511;47.532;19.180;2022-08-20T05:45:10;15.13;;;8.05;;
67717;SDS011;54511;47.532;19.180;2022-08-20T05:47:37;15.27;;;7.30;;
67717;SDS011;54511;47.532;19.180;2022-08-20T05:50:06;14.93;;;6.70;;
67717;SDS011;54511;47.532;19.180;2022-08-20T05:52:34;18.80;;;6.45;;
67717;SDS011;54511;47.532;19.180;2022-08-20T05:55:02;16.33;;;7.28;;
67717;SDS011;54511;47.532;19.180;2022-08-20T05:57:30;10.50;;;6.37;;
67717;SDS011;54511;47.532;19.180;2022-08-20T05:59:58;14.43;;;6.82;;
67717;SDS011;54511;47.532;19.180;2022-08-20T06:02:26;14.32;;;6.62;;
67717;SDS011;54511;47.532;19.180;2022-08-20T06:05:11;11.70;;;6.53;;
67717;SDS011;54511;47.532;19.180;2022-08-20T06:07:37;14.23;;;7.57;;
67717;SDS011;54511;47.532;19.180;2022-08-20T06:10:05;13.77;;;6.95;;
67717;SDS011;54511;47.532;19.180;2022-08-20T06:12:35;13.27;;;6.85;;
67717;SDS011;54511;47.532;19.180;2022-08-20T06:15:02;13.95;;;6.93;;
67717;SDS011;54511;47.532;19.180;2022-08-20T06:17:29;15.55;;;6.50;;
67717;SDS011;54511;47.532;19.180;2022-08-20T06:19:58;13.85;;;6.93;;
67717;SDS011;54511;47.532;19.180;2022-08-20T06:22:27;12.43;;;6.78;;
67717;SDS011;54511;47.532;19.180;2022-08-20T06:24:54;10.45;;;6.03;;
67717;SDS011;54511;47.532;19.180;2022-08-20T06:27:21;13.82;;;6.50;;
67717;SDS011;54511;47.532;19.180;2022-08-20T06:29:50;13.38;;;6.18;;
67717;SDS011;54511;47.532;19.180;2022-08-20T06:32:18;14.87;;;6.85;;
67717;SDS011;54511;47.532;19.180;2022-08-20T06:34:46;11.05;;;5.90;;
67717;SDS011;54511;47.532;19.180;2022-08-20T06:37:13;11.90;;;5.95;;
67717;SDS011;54511;47.532;19.180;2022-08-20T06:39:42;11.23;;;4.75;;
67717;SDS011;54511;47.532;19.180;2022-08-20T06:42:09;10.13;;;5.22;;
67717;SDS011;54511;47.532;19.180;2022-08-20T06:44:36;13.30;;;5.30;;
67717;SDS011;54511;47.532;19.180;2022-08-20T06:47:05;13.45;;;5.30;;
67717;SDS011;54511;47.532;19.180;2022-08-20T06:49:33;13.20;;;5.20;;
67717;SDS011;54511;47.532;19.180;2022-08-20T06:52:01;13.73;;;5.32;;
67717;SDS011;54511;47.532;19.180;2022-08-20T06:54:30;12.70;;;5.28;;
67717;SDS011;54511;47.532;19.180;2022-08-20T06:56:58;11.55;;;5.28;;
67717;SDS011;54511;47.532;19.180;2022-08-20T06:59:25;10.75;;;5.15;;
67717;SDS011;54511;47.532;19.180;2022-08-20T07:01:52;9.55;;;5.30;;
67717;SDS011;54511;47.532;19.180;2022-08-20T07:04:22;14.77;;;5.20;;
67717;SDS011;54511;47.532;19.180;2022-08-20T07:06:50;12.30;;;5.22;;
67717;SDS011;54511;47.532;19.180;2022-08-20T07:09:18;10.85;;;5.15;;
67717;SDS011;54511;47.532;19.180;2022-08-20T07:11:45;12.90;;;5.22;;
67717;SDS011;54511;47.532;19.180;2022-08-20T07:14:13;12.02;;;5.57;;
67717;SDS011;54511;47.532;19.180;2022-08-20T07:16:40;10.20;;;5.05;;
67717;SDS011;54511;47.532;19.180;2022-08-20T07:19:07;11.27;;;5.57;;
67717;SDS011;54511;47.532;19.180;2022-08-20T07:21:36;10.73;;;5.70;;
67717;SDS011;54511;47.532;19.180;2022-08-20T07:24:03;12.10;;;5.35;;
67717;SDS011;54511;47.532;19.180;2022-08-20T07:26:30;14.43;;;5.82;;
67717;SDS011;54511;47.532;19.180;2022-08-20T07:28:58;14.18;;;5.93;;
67717;SDS011;54511;47.532;19.180;2022-08-20T07:31:25;11.70;;;5.25;;
67717;SDS011;54511;47.532;19.180;2022-08-20T07:34:09;12.77;;;4.97;;
67717;SDS011;54511;47.532;19.180;2022-08-20T07:36:41;9.68;;;5.20;;
67717;SDS011;54511;47.532;19.180;2022-08-20T07:39:09;10.13;;;5.37;;
67717;SDS011;54511;47.532;19.180;2022-08-20T07:41:36;10.80;;;5.37;;
67717;SDS011;54511;47.532;19.180;2022-08-20T07:44:04;13.10;;;5.45;;
67717;SDS011;54511;47.532;19.180;2022-08-20T07:46:31;13.30;;;5.57;;
67717;SDS011;54511;47.532;19.180;2022-08-20T07:48:58;11.63;;;4.45;;
67717;SDS011;54511;47.532;19.180;2022-08-20T07:51:25;14.43;;;4.55;;
67717;SDS011;54511;47.532;19.180;2022-08-20T07:53:54;13.35;;;4.50;;
67717;SDS011;54511;47.532;19.180;2022-08-20T07:56:22;13.15;;;4.22;;
67717;SDS011;54511;47.532;19.180;2022-08-20T07:58:52;10.50;;;4.22;;
67717;SDS011;54511;47.532;19.180;2022-08-20T08:01:21;12.13;;;4.20;;
67717;SDS011;54511;47.532;19.180;2022-08-20T08:03:50;12.63;;;4.50;;
67717;SDS011;54511;47.532;19.180;2022-08-20T08:06:18;12.13;;;4.72;;
67717;SDS011;54511;47.532;19.180;2022-08-20T08:08:46;16.75;;;4.80;;
67717;SDS011;54511;47.532;19.180;2022-08-20T08:11:15;18.02;;;6.10;;
67717;SDS011;54511;47.532;19.180;2022-08-20T08:13:43;18.77;;;5.43;;
67717;SDS011;54511;47.532;19.180;2022-08-20T08:16:11;14.63;;;5.57;;
67717;SDS011;54511;47.532;19.180;2022-08-20T08:18:43;18.58;;;6.37;;
67717;SDS011;54511;47.532;19.180;2022-08-20T08:21:29;18.75;;;5.80;;
67717;SDS011;54511;47.532;19.180;2022-08-20T08:24:35;15.20;;;5.80;;
67717;SDS011;54511;47.532;19.180;2022-08-20T08:27:06;14.32;;;4.93;;
67717;SDS011;54511;47.532;19.180;2022-08-20T08:30:33;11.80;;;4.78;;
67717;SDS011;54511;47.532;19.180;2022-08-20T08:33:20;16.10;;;5.00;;
67717;SDS011;54511;47.532;19.180;2022-08-20T08:36:29;12.23;;;5.03;;
67717;SDS011;54511;47.532;19.180;2022-08-20T08:39:16;12.27;;;4.57;;
67717;SDS011;54511;47.532;19.180;2022-08-20T08:42:26;13.62;;;4.80;;
67717;SDS011;54511;47.532;19.180;2022-08-20T08:45:53;13.48;;;4.78;;
67717;SDS011;54511;47.532;19.180;2022-08-20T08:49:21;12.98;;;4.78;;
67717;SDS011;54511;47.532;19.180;2022-08-20T08:52:28;13.00;;;4.75;;
67717;SDS011;54511;47.532;19.180;2022-08-20T08:55:55;13.23;;;4.87;;
67717;SDS011;54511;47.532;19.180;2022-08-20T08:58:45;12.57;;;4.75;;
67717;SDS011;54511;47.532;19.180;2022-08-20T09:01:57;14.60;;;5.18;;
67717;SDS011;54511;47.532;19.180;2022-08-20T09:04:45;14.90;;;5.12;;
67717;SDS011;54511;47.532;19.180;2022-08-20T09:07:57;15.18;;;5.68;;
67717;SDS011;54511;47.532;19.180;2022-08-20T09:10:28;15.10;;;5.65;;
67717;SDS011;54511;47.532;19.180;2022-08-20T09:13:17;14.27;;;5.10;;
67717;SDS011;54511;47.532;19.180;2022-08-20T09:16:06;12.02;;;5.53;;
67717;SDS011;54511;47.532;19.180;2022-08-20T09:18:34;15.93;;;6.25;;
67717;SDS011;54511;47.532;19.180;2022-08-20T09:21:01;15.80;;;5.75;;
67717;SDS011;54511;47.532;19.180;2022-08-20T09:23:49;11.25;;;4.68;;
67717;SDS011;54511;47.532;19.180;2022-08-20T09:26:21;17.98;;;5.65;;
67717;SDS011;54511;47.532;19.180;2022-08-20T09:29:08;12.25;;;4.93;;
67717;SDS011;54511;47.532;19.180;2022-08-20T09:35:03;17.02;;;5.65;;
67717;SDS011;54511;47.532;19.180;2022-08-20T09:37:32;12.02;;;4.85;;
67717;SDS011;54511;47.532;19.180;2022-08-20T09:40:08;14.40;;;5.12;;
67717;SDS011;54511;47.532;19.180;2022-08-20T09:42:37;14.60;;;5.22;;
67717;SDS011;54511;47.532;19.180;2022-08-20T09:45:45;13.57;;;5.55;;
67717;SDS011;54511;47.532;19.180;2022-08-20T09:48:13;16.10;;;5.68;;
67717;SDS011;54511;47.532;19.180;2022-08-20T09:51:01;12.98;;;5.40;;
67717;SDS011;54511;47.532;19.180;2022-08-20T09:53:30;10.88;;;5.03;;
67717;SDS011;54511;47.532;19.180;2022-08-20T09:56:37;12.65;;;5.25;;
67717;SDS011;54511;47.532;19.180;2022-08-20T09:59:04;10.02;;;4.65;;
67717;SDS011;54511;47.532;19.180;2022-08-20T10:01:31;14.45;;;5.28;;
67717;SDS011;54511;47.532;19.180;2022-08-20T10:04:00;13.18;;;5.30;;
67717;SDS011;54511;47.532;19.180;2022-08-20T10:06:27;15.30;;;5.45;;
67717;SDS011;54511;47.532;19.180;2022-08-20T10:09:14;12.57;;;5.62;;
67717;SDS011;54511;47.532;19.180;2022-08-20T10:11:41;13.30;;;6.25;;
67717;SDS011;54511;47.532;19.180;2022-08-20T10:14:08;17.27;;;5.75;;
67717;SDS011;54511;47.532;19.180;2022-08-20T10:16:36;14.87;;;6.10;;
67717;SDS011;54511;47.532;19.180;2022-08-20T10:19:05;14.98;;;5.40;;
67717;SDS011;54511;47.532;19.180;2022-08-20T10:21:36;11.35;;;4.50;;
67717;SDS011;54511;47.532;19.180;2022-08-20T10:24:03;10.40;;;4.93;;
67717;SDS011;54511;47.532;19.180;2022-08-20T10:26:32;10.85;;;4.70;;
67717;SDS011;54511;47.532;19.180;2022-08-20T10:29:00;11.77;;;4.60;;
67717;SDS011;54511;47.532;19.180;2022-08-20T10:31:28;11.12;;;4.80;;
67717;SDS011;54511;47.532;19.180;2022-08-20T10:34:00;16.90;;;6.12;;
67717;SDS011;54511;47.532;19.180;2022-08-20T10:36:38;12.48;;;4.30;;
67717;SDS011;54511;47.532;19.180;2022-08-20T10:39:08;12.48;;;4.10;;
67717;SDS011;54511;47.532;19.180;2022-08-20T10:41:37;9.13;;;4.18;;
67717;SDS011;54511;47.532;19.180;2022-08-20T10:44:05;10.95;;;4.60;;
67717;SDS011;54511;47.532;19.180;2022-08-20T10:46:37;10.32;;;3.85;;
67717;SDS011;54511;47.532;19.180;2022-08-20T10:49:04;9.45;;;4.18;;
67717;SDS011;54511;47.532;19.180;2022-08-20T10:51:44;11.15;;;4.30;;
67717;SDS011;54511;47.532;19.180;2022-08-20T10:54:13;10.25;;;3.70;;
67717;SDS011;54511;47.532;19.180;2022-08-20T10:56:39;6.07;;;3.60;;
67717;SDS011;54511;47.532;19.180;2022-08-20T10:59:06;9.98;;;4.55;;
67717;SDS011;54511;47.532;19.180;2022-08-20T11:01:34;9.35;;;4.15;;
67717;SDS011;54511;47.532;19.180;2022-08-20T11:04:13;11.07;;;3.85;;
67717;SDS011;54511;47.532;19.180;2022-08-20T11:06:40;7.43;;;3.87;;
67717;SDS011;54511;47.532;19.180;2022-08-20T11:09:09;8.95;;;4.22;;
67717;SDS011;54511;47.532;19.180;2022-08-20T11:11:56;8.55;;;4.28;;
67717;SDS011;54511;47.532;19.180;2022-08-20T11:14:24;10.98;;;4.30;;
67717;SDS011;54511;47.532;19.180;2022-08-20T11:16:51;10.30;;;3.95;;
67717;SDS011;54511;47.532;19.180;2022-08-20T11:19:27;11.70;;;4.47;;
67717;SDS011;54511;47.532;19.180;2022-08-20T11:22:07;8.55;;;3.80;;
67717;SDS011;54511;47.532;19.180;2022-08-20T11:24:37;11.82;;;4.22;;
67717;SDS011;54511;47.532;19.180;2022-08-20T11:27:05;9.20;;;4.25;;
67717;SDS011;54511;47.532;19.180;2022-08-20T11:29:33;8.00;;;4.03;;
67717;SDS011;54511;47.532;19.180;2022-08-20T11:32:02;12.27;;;4.70;;
67717;SDS011;54511;47.532;19.180;2022-08-20T11:34:44;9.43;;;4.35;;
67717;SDS011;54511;47.532;19.180;2022-08-20T11:37:11;12.48;;;5.03;;
67717;SDS011;54511;47.532;19.180;2022-08-20T11:39:41;9.00;;;4.55;;
67717;SDS011;54511;47.532;19.180;2022-08-20T11:42:08;12.02;;;4.72;;
67717;SDS011;54511;47.532;19.180;2022-08-20T11:44:35;13.77;;;5.12;;
67717;SDS011;54511;47.532;19.180;2022-08-20T11:47:03;11.27;;;4.85;;
67717;SDS011;54511;47.532;19.180;2022-08-20T11:49:31;10.15;;;4.57;;
67717;SDS011;54511;47.532;19.180;2022-08-20T11:52:01;13.75;;;4.25;;
67717;SDS011;54511;47.532;19.180;2022-08-20T11:54:28;11.63;;;4.65;;
67717;SDS011;54511;47.532;19.180;2022-08-20T11:56:57;9.80;;;4.45;;
67717;SDS011;54511;47.532;19.180;2022-08-20T11:59:25;11.77;;;4.40;;
67717;SDS011;54511;47.532;19.180;2022-08-20T12:01:52;11.68;;;4.50;;
67717;SDS011;54511;47.532;19.180;2022-08-20T12:04:19;11.75;;;4.60;;
67717;SDS011;54511;47.532;19.180;2022-08-20T12:06:46;10.07;;;4.10;;
67717;SDS011;54511;47.532;19.180;2022-08-20T12:09:13;8.27;;;4.45;;
67717;SDS011;54511;47.532;19.180;2022-08-20T12:11:41;9.07;;;4.12;;
67717;SDS011;54511;47.532;19.180;2022-08-20T12:14:10;10.45;;;4.00;;
67717;SDS011;54511;47.532;19.180;2022-08-20T12:16:38;9.10;;;4.18;;
67717;SDS011;54511;47.532;19.180;2022-08-20T12:19:05;10.52;;;4.10;;
67717;SDS011;54511;47.532;19.180;2022-08-20T12:21:32;11.15;;;4.35;;
67717;SDS011;54511;47.532;19.180;2022-08-20T12:23:59;9.63;;;4.40;;
67717;SDS011;54511;47.532;19.180;2022-08-20T12:26:26;10.05;;;4.10;;
67717;SDS011;54511;47.532;19.180;2022-08-20T12:28:53;10.35;;;4.50;;
67717;SDS011;54511;47.532;19.180;2022-08-20T12:31:24;9.40;;;4.00;;
67717;SDS011;54511;47.532;19.180;2022-08-20T12:33:51;9.88;;;3.70;;
67717;SDS011;54511;47.532;19.180;2022-08-20T12:36:18;9.80;;;4.03;;
67717;SDS011;54511;47.532;19.180;2022-08-20T12:38:45;12.37;;;4.15;;
67717;SDS011;54511;47.532;19.180;2022-08-20T12:41:14;11.38;;;4.05;;
67717;SDS011;54511;47.532;19.180;2022-08-20T12:43:40;12.40;;;4.57;;
67717;SDS011;54511;47.532;19.180;2022-08-20T12:46:08;9.98;;;4.50;;
67717;SDS011;54511;47.532;19.180;2022-08-20T12:48:36;11.77;;;4.62;;
67717;SDS011;54511;47.532;19.180;2022-08-20T12:51:08;12.27;;;5.28;;
67717;SDS011;54511;47.532;19.180;2022-08-20T12:53:38;15.10;;;4.95;;
67717;SDS011;54511;47.532;19.180;2022-08-20T12:56:09;12.25;;;5.68;;
67717;SDS011;54511;47.532;19.180;2022-08-20T12:58:36;16.20;;;5.47;;
67717;SDS011;54511;47.532;19.180;2022-08-20T13:01:03;12.32;;;5.65;;
67717;SDS011;54511;47.532;19.180;2022-08-20T13:03:35;11.95;;;5.07;;
67717;SDS011;54511;47.532;19.180;2022-08-20T13:06:03;10.75;;;4.70;;
67717;SDS011;54511;47.532;19.180;2022-08-20T13:08:30;11.88;;;5.35;;
67717;SDS011;54511;47.532;19.180;2022-08-20T13:10:58;9.00;;;4.57;;
67717;SDS011;54511;47.532;19.180;2022-08-20T13:13:44;11.02;;;5.35;;
67717;SDS011;54511;47.532;19.180;2022-08-20T13:16:32;11.30;;;5.20;;
67717;SDS011;54511;47.532;19.180;2022-08-20T13:19:22;9.73;;;4.35;;
67717;SDS011;54511;47.532;19.180;2022-08-20T13:22:10;10.85;;;4.82;;
67717;SDS011;54511;47.532;19.180;2022-08-20T13:25:17;10.52;;;4.47;;
67717;SDS011;54511;47.532;19.180;2022-08-20T13:28:06;9.98;;;4.55;;
67717;SDS011;54511;47.532;19.180;2022-08-20T13:30:33;10.45;;;4.00;;
67717;SDS011;54511;47.532;19.180;2022-08-20T13:33:03;11.15;;;4.40;;
67717;SDS011;54511;47.532;19.180;2022-08-20T13:35:40;11.60;;;4.57;;
67717;SDS011;54511;47.532;19.180;2022-08-20T13:38:32;11.50;;;4.72;;
67717;SDS011;54511;47.532;19.180;2022-08-20T13:41:18;11.60;;;4.32;;
67717;SDS011;54511;47.532;19.180;2022-08-20T13:44:06;10.23;;;4.80;;
67717;SDS011;54511;47.532;19.180;2022-08-20T13:46:34;12.07;;;4.15;;
67717;SDS011;54511;47.532;19.180;2022-08-20T13:49:21;10.38;;;4.25;;
67717;SDS011;54511;47.532;19.180;2022-08-20T13:51:49;11.93;;;4.70;;
67717;SDS011;54511;47.532;19.180;2022-08-20T13:54:46;9.48;;;4.65;;
67717;SDS011;54511;47.532;19.180;2022-08-20T13:57:33;7.72;;;4.30;;
67717;SDS011;54511;47.532;19.180;2022-08-20T14:00:12;9.98;;;4.57;;
67717;SDS011;54511;47.532;19.180;2022-08-20T14:03:21;11.95;;;4.90;;
67717;SDS011;54511;47.532;19.180;2022-08-20T14:05:49;11.25;;;4.47;;
67717;SDS011;54511;47.532;19.180;2022-08-20T14:08:37;8.35;;;4.32;;
67717;SDS011;54511;47.532;19.180;2022-08-20T14:11:08;11.20;;;4.55;;
67717;SDS011;54511;47.532;19.180;2022-08-20T14:13:36;11.00;;;4.53;;
67717;SDS011;54511;47.532;19.180;2022-08-20T14:16:23;11.88;;;3.92;;
67717;SDS011;54511;47.532;19.180;2022-08-20T14:18:50;11.75;;;4.37;;
67717;SDS011;54511;47.532;19.180;2022-08-20T14:21:17;11.48;;;3.65;;
67717;SDS011;54511;47.532;19.180;2022-08-20T14:24:05;14.77;;;3.45;;
67717;SDS011;54511;47.532;19.180;2022-08-20T14:26:55;9.82;;;3.30;;
67717;SDS011;54511;47.532;19.180;2022-08-20T14:29:23;7.75;;;3.50;;
67717;SDS011;54511;47.532;19.180;2022-08-20T14:31:50;8.98;;;3.87;;
67717;SDS011;54511;47.532;19.180;2022-08-20T14:34:17;9.93;;;3.53;;
67717;SDS011;54511;47.532;19.180;2022-08-20T14:37:08;11.43;;;4.30;;
67717;SDS011;54511;47.532;19.180;2022-08-20T14:40:19;8.27;;;3.15;;
67717;SDS011;54511;47.532;19.180;2022-08-20T14:43:10;8.18;;;3.28;;
67717;SDS011;54511;47.532;19.180;2022-08-20T14:45:38;10.57;;;3.40;;
67717;SDS011;54511;47.532;19.180;2022-08-20T14:48:25;9.10;;;3.53;;
67717;SDS011;54511;47.532;19.180;2022-08-20T14:50:53;8.43;;;3.60;;
67717;SDS011;54511;47.532;19.180;2022-08-20T14:53:25;10.38;;;3.25;;
67717;SDS011;54511;47.532;19.180;2022-08-20T14:55:53;7.12;;;3.20;;
67717;SDS011;54511;47.532;19.180;2022-08-20T14:58:21;10.38;;;3.83;;
67717;SDS011;54511;47.532;19.180;2022-08-20T15:00:48;9.15;;;3.42;;